Tiempo atmosférico en la estación meteorológica de Valsequillo, Córdoba (575 m.)



Fecha
DESCASC
Temp. máxima en grados centígrados (hora)
DESCASC
Temp. mínima en grados centígrados (hora)
DESCASC
Temp. media en grados centígrados
DESCASC
Racha de viento máxima en m/sg (hora)
DESCASC
Velocidad máxima media en intervalos de 10 minutos(hora)
DESCASC
Precipitaciones diarias en mm
DESCASC
Precipitaciones de 00:00 a 06:00 en mm
DESCASC
Precipitaciones de 06:00 a 12:00 en mm
DESCASC
Precipitaciones de 12:00 a 18:00 en mm
DESCASC
Precipitaciones de 18:00 a 24:00 en mm
DESCASC
29-10-2020 23.1 (16:10) 8 (06:50) 15.6 5 (14:10) 2.5 (14:50) 0 0 0 0 0
28-10-2020 19.4 (16:10) 6.8 (01:00) 13.1 5.28 (16:40) 3.61 (16:40) 0 0 0 0 0
27-10-2020 16.5 (16:00) 5 (00:00) 10.8 5.28 (17:40) 3.61 (17:20) 0 0 0 0 0
26-10-2020 14.1 (14:50) 6.2 (00:00) 10.2 10.56 (01:00) 7.22 (01:00) 0 0 0 0 0
25-10-2020 17.4 (14:40) 7.9 (00:00) 12.6 13.33 (13:50) 8.89 (13:50) 7 0 0 0 7
24-10-2020 19.2 (16:10) 7.2 (00:00) 13.2 7.22 (15:00) 4.72 (16:30) 0 0 0 0 0
23-10-2020 17.5 (15:10) 8.7 (00:00) 13.1 7.5 (15:50) 5 (15:50) 0.2 0 0 0.2 0
22-10-2020 16.8 (14:20) 12.4 (00:00) 14.6 10 (05:50) 5.83 (14:20) 27 17.8 8.4 0.8 0
21-10-2020 19.8 (16:00) 13.7 (00:00) 16.7 11.67 (23:10) 6.39 (15:00) 3.4 0 2 0 1.4
20-10-2020 22.2 (16:30) 14.5 (00:00) 18.4 21.11 (22:10) 12.22 (22:10) 12 0 0.4 0 11.6
19-10-2020 26.6 (16:10) 13.7 (00:00) 20.2 12.78 (16:50) 7.5 (16:50) 0 0 0 0 0
18-10-2020 24.9 (16:50) 4.1 (00:00) 14.5 7.78 (17:00) 4.17 (17:00) 0 0 0 0 0
17-10-2020 22.4 (16:40) 3.6 (00:00) 13 6.39 (15:40) 3.61 (17:40) 0 0 0 0 0
16-10-2020 21 (16:50) 3.6 (00:00) 12.3 5.83 (18:20) 2.78 (18:10) 0 0 0 0 0
15-10-2020 20.5 (16:50) 5 (00:00) 12.8 6.11 (17:00) 3.61 (19:30) 0 0 0 0 0
14-10-2020 19.3 (16:50) 7.1 (00:00) 13.2 9.44 (16:50) 6.67 (03:00) 0 0 0 0 0
13-10-2020 25.7 (16:50) 3.7 (00:00) 14.7 8.33 (17:30) 5.28 (18:20) 0 0 0 0 0
12-10-2020 21.1 (17:30) 8.8 (00:00) 15 9.17 (13:00) 5 (11:30) 0 0 0 0 0
11-10-2020 24.5 (17:10) 13 (00:00) 18.8 8.89 (12:20) 4.44 (12:20) 0 0 0 0 0
10-10-2020 30.2 (15:20) 10.6 (00:00) 20.4 8.33 (16:10) 5 (16:20) 0 0 0 0 0
09-10-2020 30.1 (15:10) 12.1 (00:00) 21.1 6.11 (17:00) 4.17 (18:40) 0 0 0 0 0
08-10-2020 30.3 (17:10) 9 (00:00) 19.6 9.17 (14:00) 5 (13:10) 0 0 0 0 0
07-10-2020 29.4 (17:10) 9.2 (00:00) 19.3 5 (15:40) 2.78 (21:00) 0 0 0 0 0
06-10-2020 26.1 (17:20) 8.2 (00:00) 17.2 8.06 (15:30) 4.17 (18:50) 0 0 0 0 0
05-10-2020 20.8 (17:40) 6.5 (00:00) 13.6 11.11 (12:30) 7.22 (12:20) 0 0 0 0 0
04-10-2020 18.9 (14:50) 5.7 (00:00) 12.3 13.06 (16:20) 8.61 (16:10) 0 0 0 0 0
03-10-2020 18.3 (17:00) 6.2 (00:00) 12.2 11.11 (15:40) 7.5 (17:40) 0 0 0 0 0
02-10-2020 17 (12:00) 9.4 (00:00) 13.2 19.44 (15:20) 13.33 (14:10) 2.8 0 0 2.8 0
01-10-2020 25.3 (16:20) 11 (00:00) 18.1 11.67 (16:10) 8.06 (17:00) 0 0 0 0 0

Gráficas

Temp. máximas Temp. mínimas Temp. medias Precipitaciones Rachas de viento máximas Velocidades máximas media en intervalos de 10 minutos

Datos horarios

Fecha y hora oficial Temperatura (ºC) Velocidad del viento (km/h) Dirección del viento Racha (km/h) Dirección de racha Precipitación (mm) Presión (hPa) Tendencia (hPa) Humedad (%)
2020-10-30 23:00:00 12.6 0 Calma 5 Oeste 0 -- -- 81
2020-10-30 22:00:00 13.9 0 Calma 4 Sudeste 0 -- -- 75
2020-10-30 21:00:00 16.3 2 Sur 4 Sur 0 -- -- 61
2020-10-30 20:00:00 17.5 0 Calma 8 Sudoeste 0 -- -- 66
2020-10-30 19:00:00 19.5 3 Sudoeste 8 Sudoeste 0 -- -- 61
2020-10-30 18:00:00 22.2 3 Norte 13 Norte 0 -- -- 49
2020-10-30 17:00:00 24.4 5 Norte 9 Norte 0 -- -- 43
2020-10-30 16:00:00 24.4 4 Noroeste 13 Este 0 -- -- 43
2020-10-30 15:00:00 23.9 5 Nordeste 12 Nordeste 0 -- -- 47
2020-10-30 14:00:00 22.9 6 Nordeste 13 Nordeste 0 -- -- 49
2020-10-30 13:00:00 21.5 5 Nordeste 10 Nordeste 0 -- -- 55
2020-10-30 12:00:00 19.5 5 Nordeste 11 Nordeste 0 -- -- 62
2020-10-30 11:00:00 18.1 4 Nordeste 9 Este 0 -- -- 66
2020-10-30 10:00:00 15.4 2 Nordeste 5 Este 0 -- -- 81
2020-10-30 09:00:00 11.7 0 Calma 7 Este 0 -- -- 97
2020-10-30 08:00:00 7.8 2 Este 5 Este 0 -- -- 95
2020-10-30 07:00:00 8.5 3 Este 5 Este 0 -- -- 95
2020-10-30 06:00:00 8.6 3 Este 4 Este 0 -- -- 94
2020-10-30 05:00:00 9.2 0 Calma 3 Oeste 0 -- -- 93
2020-10-30 04:00:00 9.9 0 Calma 6 Este 0 -- -- 92
2020-10-30 03:00:00 10.2 0 Calma 6 Este 0 -- -- 92
2020-10-30 02:00:00 10.6 3 Norte 4 Nordeste 0 -- -- 93
2020-10-30 01:00:00 11.3 3 Nordeste 6 Nordeste 0 -- -- 90
2020-10-30 00:00:00 11.3 0 Calma 5 Este 0 -- -- 89
2020-10-29 23:00:00 12.2 2 Este 7 Este 0 -- -- 87
2020-10-29 22:00:00 13.3 0 Calma 4 Este 0 -- -- 83
2020-10-29 21:00:00 14.8 0 Calma 6 Este 0 -- -- 78
2020-10-29 20:00:00 16.9 3 Este 8 Este 0 -- -- 70
2020-10-29 19:00:00 18.8 2 Norte 7 Nordeste 0 -- -- 63
2020-10-29 18:00:00 21.4 5 Nordeste 13 Nordeste 0 -- -- 55
2020-10-29 17:00:00 22.7 6 Nordeste 14 Este 0 -- -- 52
2020-10-29 16:00:00 22.9 6 Nordeste 18 Este 0 -- -- 53
2020-10-29 15:00:00 22.5 7 Nordeste 18 Nordeste 0 -- -- 55
2020-10-29 14:00:00 21.4 6 Nordeste 17 Este 0 -- -- 60
2020-10-29 13:00:00 19.3 7 Nordeste 16 Este 0 -- -- 66
2020-10-29 12:00:00 17.3 8 Nordeste 15 Este 0 -- -- 74
2020-10-29 11:00:00 15.1 6 Nordeste 14 Nordeste 0 -- -- 82
2020-10-29 10:00:00 13.3 7 Este 13 Este 0 -- -- 91
2020-10-29 09:00:00 11.3 5 Nordeste 9 Este 0 -- -- 98
2020-10-29 08:00:00 8.4 0 Calma 5 Nordeste 0 -- -- 98
2020-10-29 07:00:00 8.1 0 Calma 5 Este 0 -- -- 98
2020-10-29 06:00:00 9.4 0 Calma 4 Nordeste 0 -- -- 97
2020-10-29 05:00:00 9.4 0 Calma 4 Nordeste 0 -- -- 97
2020-10-29 04:00:00 9 0 Calma 4 Nordeste 0 -- -- 97
2020-10-29 03:00:00 8.9 0 Calma 4 Oeste 0 -- -- 96
2020-10-29 02:00:00 9.4 0 Calma 2 Norte 0 -- -- 94
2020-10-29 01:00:00 10.1 0 Calma 2 Noroeste 0 -- -- 93
2020-10-29 00:00:00 10.9 0 Calma 2 Sudeste 0 -- -- 92
2020-10-28 23:00:00 12.3 0 Calma 10 Norte 0 -- -- 91
2020-10-28 22:00:00 13 8 Norte 17 Norte 0 -- -- 88
2020-10-28 21:00:00 13.4 10 Norte 15 Norte 0 -- -- 87
2020-10-28 20:00:00 14.1 12 Norte 15 Norte 0 -- -- 85
2020-10-28 19:00:00 15.1 8 Norte 10 Norte 0 -- -- 79
2020-10-28 18:00:00 18 6 Norte 16 Norte 0 -- -- 69
2020-10-28 17:00:00 18.8 13 Norte 19 Norte 0 -- -- 65
2020-10-28 16:00:00 19.2 10 Norte 19 Norte 0 -- -- 63
2020-10-28 15:00:00 18.6 10 Norte 16 Norte 0 -- -- 64
2020-10-28 14:00:00 17.2 6 Norte 14 Nordeste 0 -- -- 68
2020-10-28 13:00:00 15.7 6 Norte 15 Nordeste 0 -- -- 72
2020-10-28 12:00:00 14.1 9 Norte 18 Noroeste 0 -- -- 76
2020-10-28 11:00:00 14.2 7 Nordeste 14 Nordeste 0 -- -- 76
2020-10-28 10:00:00 13.2 3 Nordeste 9 Nordeste 0 -- -- 79
2020-10-28 09:00:00 11.9 4 Nordeste 10 Norte 0 -- -- 84
2020-10-28 08:00:00 11.1 4 Norte 9 Norte 0 -- -- 89
2020-10-28 07:00:00 10.2 0 Calma 3 Norte 0 -- -- 92
2020-10-28 06:00:00 9.6 0 Calma 3 Sur 0 -- -- 92
2020-10-28 05:00:00 8.9 0 Calma 5 Sudeste 0 -- -- 94
2020-10-28 04:00:00 7.7 0 Calma 3 Sudeste 0 -- -- 95
2020-10-28 03:00:00 7 0 Calma 2 Oeste 0 -- -- 94
2020-10-28 02:00:00 7 0 Calma 4 Sudoeste 0 -- -- 94
2020-10-28 01:00:00 6.8 0 Calma 2 Sudoeste 0 -- -- 93
2020-10-28 00:00:00 7.3 0 Calma 3 Noroeste 0 -- -- 92
2020-10-27 23:00:00 8 0 Calma 3 Sudeste 0 -- -- 90
2020-10-27 22:00:00 8.7 2 Oeste 4 Sudoeste 0 -- -- 89
2020-10-27 21:00:00 9.9 0 Calma 3 Noroeste 0 -- -- 82
2020-10-27 20:00:00 10.7 3 Noroeste 10 Noroeste 0 -- -- 79
2020-10-27 19:00:00 12.1 9 Norte 18 Noroeste 0 -- -- 74
2020-10-27 18:00:00 14.6 12 Noroeste 19 Noroeste 0 -- -- 60
2020-10-27 17:00:00 16 9 Noroeste 17 Noroeste 0 -- -- 52
2020-10-27 16:00:00 16.5 9 Noroeste 18 Noroeste 0 -- -- 51
2020-10-27 15:00:00 16.1 6 Noroeste 18 Noroeste 0 -- -- 50
2020-10-27 14:00:00 15.2 7 Oeste 17 Noroeste 0 -- -- 55
2020-10-27 13:00:00 14.2 7 Noroeste 17 Noroeste 0 -- -- 58
2020-10-27 12:00:00 12.8 8 Oeste 14 Oeste 0 -- -- 63
2020-10-27 11:00:00 10.6 4 Sur 8 Sudeste 0 -- -- 80
2020-10-27 10:00:00 8.2 0 Calma 8 Sur 0 -- -- 89
2020-10-27 09:00:00 6.7 4 Sur 8 Sudoeste 0 -- -- 93
2020-10-27 08:00:00 5.2 3 Sur 6 Sur 0 -- -- 94
2020-10-27 07:00:00 5.2 2 Sur 6 Sur 0 -- -- 94
2020-10-27 06:00:00 5.4 2 Sur 10 Sur 0 -- -- 94
2020-10-27 05:00:00 5.4 4 Sur 6 Sur 0 -- -- 93
2020-10-27 04:00:00 5.3 4 Sur 6 Sur 0 -- -- 93
2020-10-27 03:00:00 5.3 2 Sur 6 Sur 0 -- -- 92
2020-10-27 02:00:00 5.9 3 Sudoeste 9 Sur 0 -- -- 89
2020-10-27 01:00:00 6.3 3 Sur 8 Sur 0 -- -- 89
2020-10-27 00:00:00 6.2 2 Sudoeste 8 Sudeste 0 -- -- 87
2020-10-26 23:00:00 6.2 3 Sudoeste 9 Oeste 0 -- -- 90
2020-10-26 22:00:00 7.1 3 Sudeste 8 Oeste 0 -- -- 85
2020-10-26 21:00:00 7.6 4 Oeste 5 Oeste 0 -- -- 85
2020-10-26 20:00:00 8.5 7 Oeste 8 Noroeste 0 -- -- 81
2020-10-26 19:00:00 10.2 6 Norte 13 Noroeste 0 -- -- 70
2020-10-26 18:00:00 12.8 10 Noroeste 23 Noroeste 0 -- -- 61
2020-10-26 17:00:00 14 15 Noroeste 29 Noroeste 0 -- -- 53
2020-10-26 16:00:00 13.9 17 Noroeste 31 Noroeste 0 -- -- 56
2020-10-26 15:00:00 14.1 22 Noroeste 34 Oeste 0 -- -- 54
2020-10-26 14:00:00 13.7 21 Noroeste 33 Oeste 0 -- -- 57
2020-10-26 13:00:00 12.9 18 Oeste 30 Noroeste 0 -- -- 64
2020-10-26 12:00:00 12.1 20 Noroeste 31 Noroeste 0 -- -- 68
2020-10-26 11:00:00 11 19 Noroeste 27 Noroeste 0 -- -- 77
2020-10-26 10:00:00 9.8 21 Noroeste 28 Noroeste 0 -- -- 79
2020-10-26 09:00:00 8.9 10 Noroeste 28 Oeste 0 -- -- 89
2020-10-26 08:00:00 7.8 18 Oeste 27 Oeste 0 -- -- 90
2020-10-26 07:00:00 8.2 15 Oeste 21 Oeste 0 -- -- 91
2020-10-26 06:00:00 8.4 10 Oeste 22 Oeste 0 -- -- 89
2020-10-26 05:00:00 8.8 12 Noroeste 28 Oeste 0 -- -- 88
2020-10-26 04:00:00 9 16 Noroeste 27 Noroeste 0 -- -- 87
2020-10-26 03:00:00 9.5 20 Oeste 28 Oeste 0 -- -- 89
2020-10-26 02:00:00 9.9 18 Oeste 35 Oeste 0 -- -- 90
2020-10-26 01:00:00 10.5 26 Oeste 38 Oeste 0 -- -- 88
2020-10-26 00:00:00 10.9 29 Noroeste 48 Oeste 0 -- -- 89
2020-10-25 23:00:00 11.9 23 Oeste 44 Oeste 1 -- -- 92
2020-10-25 22:00:00 12.9 19 Oeste 28 Oeste 0.6 -- -- 94
2020-10-25 21:00:00 13 17 Oeste 28 Sudoeste 4.4 -- -- 94
2020-10-25 20:00:00 13.6 19 Sudoeste 42 Sur 1 -- -- 93
2020-10-25 19:00:00 15 22 Sudoeste 39 Sudoeste 0 -- -- 79
2020-10-25 18:00:00 15.5 17 Sur 45 Sudoeste 0 -- -- 74
2020-10-25 17:00:00 15.7 24 Sudoeste 41 Sudoeste 0 -- -- 72
2020-10-25 16:00:00 16.3 19 Sur 37 Sur 0 -- -- 68
2020-10-25 15:00:00 16.4 26 Sudoeste 45 Sur 0 -- -- 66
2020-10-25 14:00:00 16.9 30 Sudoeste 48 Sudoeste 0 -- -- 66
2020-10-25 13:00:00 15.5 20 Sudoeste 36 Sudoeste 0 -- -- 72
2020-10-25 12:00:00 14.6 18 Sur 32 Sur 0 -- -- 73
2020-10-25 11:00:00 13.4 12 Sur 26 Sur 0 -- -- 81
2020-10-25 10:00:00 12 8 Sur 19 Sur 0 -- -- 88
2020-10-25 09:00:00 10 3 Sur 9 Sur 0 -- -- 94
2020-10-25 08:00:00 7.9 4 Sudoeste 8 Sur 0 -- -- 96
2020-10-25 07:00:00 8.2 3 Sur 7 Sudoeste 0 -- -- 95
2020-10-25 06:00:00 8.2 3 Sudoeste 6 Noroeste 0 -- -- 95
2020-10-25 05:00:00 8.5 0 Calma 5 Sur 0 -- -- 95
2020-10-25 04:00:00 8.5 0 Calma 5 Sudeste 0 -- -- 94
2020-10-25 03:00:00 9.8 2 Oeste 8 Sur 0 -- -- 94
2020-10-25 02:00:00 10.8 5 Sur 12 Sudoeste 0 -- -- 91
2020-10-25 01:00:00 11.8 10 Sudoeste 14 Sudoeste 0 -- -- 89
2020-10-25 00:00:00 12.4 8 Sudoeste 13 Sudoeste 0 -- -- 88
2020-10-24 23:00:00 11.9 5 Sudoeste 9 Sudoeste 0 -- -- 83
2020-10-24 22:00:00 12.5 0 Calma 11 Oeste 0 -- -- 80
2020-10-24 21:00:00 13.3 8 Oeste 10 Oeste 0 -- -- 78
2020-10-24 20:00:00 14.9 7 Oeste 13 Oeste 0 -- -- 72
2020-10-24 19:00:00 17.2 9 Oeste 21 Oeste 0 -- -- 61
2020-10-24 18:00:00 18.1 14 Oeste 23 Sudoeste 0 -- -- 56
2020-10-24 17:00:00 19 12 Oeste 26 Oeste 0 -- -- 50
2020-10-24 16:00:00 18.7 16 Oeste 26 Oeste 0 -- -- 53
2020-10-24 15:00:00 17.6 14 Oeste 26 Oeste 0 -- -- 55
2020-10-24 14:00:00 17.4 9 Sudoeste 20 Sudoeste 0 -- -- 60
2020-10-24 13:00:00 16.6 8 Sudoeste 14 Sur 0 -- -- 67
2020-10-24 12:00:00 14.8 6 Sur 10 Sur 0 -- -- 76
2020-10-24 11:00:00 12.6 4 Sur 8 Sur 0 -- -- 89
2020-10-24 10:00:00 9.3 2 Sur 4 Sur 0 -- -- 98
2020-10-24 09:00:00 7.3 3 Sur 5 Sur 0 -- -- 97
2020-10-24 08:00:00 7.4 4 Sur 6 Sur 0 -- -- 97
2020-10-24 07:00:00 7.6 3 Sur 4 Sur 0 -- -- 97
2020-10-24 06:00:00 7.7 2 Sur 4 Sur 0 -- -- 96
2020-10-24 05:00:00 8.6 0 Calma 4 Oeste 0 -- -- 96
2020-10-24 04:00:00 9.2 3 Oeste 6 Sudoeste 0 -- -- 95
2020-10-24 03:00:00 9.8 0 Calma 3 Sur 0 -- -- 95
2020-10-24 02:00:00 10.6 0 Calma 6 Sur 0 -- -- 93
2020-10-24 01:00:00 11.2 4 Sur 10 Sur 0 -- -- 92
2020-10-24 00:00:00 12.1 2 Sur 9 Sudoeste 0 -- -- 90
2020-10-23 23:00:00 12.5 0 Calma 5 Sudoeste 0 -- -- 90
2020-10-23 22:00:00 11.9 0 Calma 5 Este 0 -- -- 91
2020-10-23 21:00:00 12.5 0 Calma 6 Noroeste 0 -- -- 88
2020-10-23 20:00:00 13.4 6 Noroeste 16 Oeste 0 -- -- 84
2020-10-23 19:00:00 16.1 9 Oeste 17 Oeste 0 -- -- 68
2020-10-23 18:00:00 16.7 10 Oeste 19 Sudoeste 0 -- -- 63
2020-10-23 17:00:00 15.9 11 Noroeste 22 Oeste 0 -- -- 70
2020-10-23 16:00:00 15.5 17 Oeste 27 Oeste 0 -- -- 69
2020-10-23 15:00:00 17.3 16 Oeste 25 Sudoeste 0 -- -- 58
2020-10-23 14:00:00 16 14 Oeste 24 Sudoeste 0 -- -- 60
2020-10-23 13:00:00 16.2 11 Sur 18 Sur 0.2 -- -- 65
2020-10-23 12:00:00 14.4 7 Sur 13 Sur 0 -- -- 74
2020-10-23 11:00:00 11.5 5 Sudoeste 9 Sudoeste 0 -- -- 97
2020-10-23 10:00:00 10 0 Calma 8 Sudoeste 0 -- -- 97
2020-10-23 09:00:00 9.7 5 Sudoeste 13 Sudoeste 0 -- -- 97
2020-10-23 08:00:00 8.7 3 Sudoeste 8 Sur 0 -- -- 95
2020-10-23 07:00:00 9.4 4 Sur 8 Sudoeste 0 -- -- 95
2020-10-23 06:00:00 9.9 5 Sudoeste 8 Oeste 0 -- -- 94
2020-10-23 05:00:00 10.3 6 Sudoeste 10 Sudoeste 0 -- -- 93
2020-10-23 04:00:00 10.8 5 Sudoeste 8 Sudoeste 0 -- -- 93
2020-10-23 03:00:00 11.2 4 Sur 10 Sur 0 -- -- 93
2020-10-23 02:00:00 11.1 3 Sur 8 Sur 0 -- -- 91
2020-10-23 01:00:00 12 8 Sudoeste 14 Sudoeste 0 -- -- 88
2020-10-23 00:00:00 12.4 8 Sudoeste 18 Sudoeste 0 -- -- 88
2020-10-22 23:00:00 13.1 8 Sur 16 Sudoeste 0 -- -- 89
2020-10-22 22:00:00 13.4 8 Sudoeste 14 Sudoeste 0 -- -- 91
2020-10-22 21:00:00 13.7 6 Sudoeste 15 Sur 0 -- -- 90
2020-10-22 20:00:00 14.1 10 Sur 31 Sur 0 -- -- 88
2020-10-22 19:00:00 15.3 16 Sur 26 Sudeste 0 -- -- 83
2020-10-22 18:00:00 15.3 16 Sur 30 Sudeste 0 -- -- 83
2020-10-22 17:00:00 15.1 13 Sur 25 Sur 0.8 -- -- 90
2020-10-22 16:00:00 15.5 15 Sur 26 Sudeste 0 -- -- 88
2020-10-22 15:00:00 16.1 17 Sur 32 Sur 0 -- -- 82
2020-10-22 14:00:00 16.3 16 Sudeste 26 Sudoeste 0 -- -- 83
2020-10-22 13:00:00 16 10 Sur 21 Sudoeste 0 -- -- 82
2020-10-22 12:00:00 15.1 11 Sur 19 Sudoeste 0 -- -- 88
2020-10-22 11:00:00 14.5 6 Sur 12 Sur 0.2 -- -- 93
2020-10-22 10:00:00 14.1 7 Sur 15 Sur 0 -- -- 94
2020-10-22 09:00:00 13.2 9 Sur 17 Sur 0 -- -- 95
2020-10-22 08:00:00 12.4 3 Sur 25 Sur 5.6 -- -- 91
2020-10-22 07:00:00 13.9 5 Sur 22 Sur 2.6 -- -- 93
2020-10-22 06:00:00 13.9 16 Sur 36 Sur 6.8 -- -- 92
2020-10-22 05:00:00 14.1 7 Sur 23 Sur 1.2 -- -- 93
2020-10-22 04:00:00 14 6 Sur 13 Sur 0 -- -- 94
2020-10-22 03:00:00 13.8 8 Sur 19 Sur 2.2 -- -- 94
2020-10-22 02:00:00 13.4 6 Sur 21 Sudoeste 3.4 -- -- 93
2020-10-22 01:00:00 13.8 14 Sudoeste 24 Sudoeste 4.2 -- -- 94
2020-10-22 00:00:00 14.2 14 Sudoeste 42 Sur 0.2 -- -- 90
2020-10-21 23:00:00 14.5 16 Sur 37 Sur 1.2 -- -- 87
2020-10-21 22:00:00 15.7 11 Sur 23 Sudeste 0 -- -- 83
2020-10-21 21:00:00 15.9 14 Sur 27 Sudeste 0 -- -- 81
2020-10-21 20:00:00 16.8 13 Sur 26 Sur 0 -- -- 73
2020-10-21 19:00:00 17.8 14 Sur 28 Sur 0 -- -- 67
2020-10-21 18:00:00 18.2 15 Sur 30 Sur 0 -- -- 65
2020-10-21 17:00:00 19 17 Sur 31 Sudoeste 0 -- -- 63
2020-10-21 16:00:00 19.8 18 Sur 40 Sudoeste 0 -- -- 59
2020-10-21 15:00:00 18.8 23 Sudoeste 40 Sudoeste 0 -- -- 62
2020-10-21 14:00:00 18.3 20 Sudoeste 38 Sur 0 -- -- 67
2020-10-21 13:00:00 17.6 17 Sur 31 Sur 0 -- -- 73
2020-10-21 12:00:00 16.7 13 Sur 30 Sur 0 -- -- 78
2020-10-21 11:00:00 15.2 5 Sudoeste 19 Sur 0 -- -- 87
2020-10-21 10:00:00 14.6 8 Sur 36 Sudoeste 0 -- -- 88
2020-10-21 09:00:00 14 17 Sudoeste 32 Sur 0.4 -- -- 89
2020-10-21 08:00:00 14.1 10 Sur 17 Sudoeste 1 -- -- 95
2020-10-21 07:00:00 13.8 9 Sur 30 Sur 0.6 -- -- 94
2020-10-21 06:00:00 13.9 12 Sur 21 Sudeste 0 -- -- 92
2020-10-21 05:00:00 14 9 Sur 31 Sur 0 -- -- 88
2020-10-21 04:00:00 14.1 13 Sur 27 Sudoeste 0 -- -- 89
2020-10-21 03:00:00 13.9 11 Sur 21 Sur 0 -- -- 89
2020-10-21 02:00:00 13.9 8 Sudoeste 36 Sur 0 -- -- 87
2020-10-21 01:00:00 14.5 18 Sur 39 Sudoeste 0 -- -- 86
2020-10-21 00:00:00 15.5 21 Sur 56 Sudoeste 0.4 -- -- 85
2020-10-20 23:00:00 15.2 35 Oeste 76 Sur 5 -- -- 87
2020-10-20 22:00:00 16.5 40 Sur 67 Sur 2.2 -- -- 88
2020-10-20 21:00:00 16.6 36 Sur 59 Sur 1.2 -- -- 88
2020-10-20 20:00:00 16.2 28 Sur 57 Sur 2.6 -- -- 89
2020-10-20 19:00:00 18.6 36 Sur 62 Sur 0.2 -- -- 64
2020-10-20 18:00:00 18.7 23 Sur 55 Sur 0 -- -- 59
2020-10-20 17:00:00 21.7 38 Sur 63 Sur 0 -- -- 42
2020-10-20 16:00:00 21.8 31 Sur 55 Sur 0 -- -- 43
2020-10-20 15:00:00 21.6 29 Sur 55 Sur 0 -- -- 41
2020-10-20 14:00:00 21.4 30 Sur 57 Sur 0 -- -- 42
2020-10-20 13:00:00 20.6 32 Sur 54 Sur 0 -- -- 45
2020-10-20 12:00:00 19.8 29 Sur 50 Sur 0 -- -- 57
2020-10-20 11:00:00 18 26 Sur 49 Sur 0 -- -- 58
2020-10-20 10:00:00 17.4 23 Sur 44 Sur 0 -- -- 59
2020-10-20 09:00:00 16.6 18 Sur 39 Sur 0 -- -- 59
2020-10-20 08:00:00 16.5 20 Sur 37 Sur 0 -- -- 61
2020-10-20 07:00:00 15.6 15 Sur 38 Sur 0.4 -- -- 66
2020-10-20 06:00:00 16.8 17 Sur 40 Sur 0 -- -- 55
2020-10-20 05:00:00 17.3 21 Sur 38 Sur 0 -- -- 50
2020-10-20 04:00:00 17.2 20 Sur 34 Sur 0 -- -- 55
2020-10-20 03:00:00 17.4 16 Sur 29 Sur 0 -- -- 55
2020-10-20 02:00:00 18.1 16 Sur 30 Sur 0 -- -- 48
2020-10-20 01:00:00 18.2 13 Sur 24 Sur 0 -- -- 50
2020-10-20 00:00:00 18.6 16 Sur 27 Sur 0 -- -- 53
2020-10-19 23:00:00 19.3 14 Sur 24 Sur 0 -- -- 47
2020-10-19 22:00:00 19.8 10 Sur 20 Sur 0 -- -- 37
2020-10-19 21:00:00 20.9 12 Sur 22 Sur 0 -- -- 30
2020-10-19 20:00:00 22.3 14 Sur 31 Sur 0 -- -- 28
2020-10-19 19:00:00 23.8 18 Sur 36 Sur 0 -- -- 25
2020-10-19 18:00:00 24.6 23 Sur 39 Sudeste 0 -- -- 23
2020-10-19 17:00:00 25.9 25 Sur 46 Sur 0 -- -- 21
2020-10-19 16:00:00 26.5 21 Sur 38 Sur 0 -- -- 21
2020-10-19 15:00:00 25.5 19 Sur 37 Sur 0 -- -- 22
2020-10-19 14:00:00 24.7 21 Sur 40 Sur 0 -- -- 22
2020-10-19 13:00:00 24.2 24 Sur 41 Sur 0 -- -- 22
2020-10-19 12:00:00 22.6 23 Sur 36 Sur 0 -- -- 23
2020-10-19 11:00:00 19.5 24 Sur 36 Sudeste 0 -- -- 28
2020-10-19 10:00:00 16.5 18 Sur 28 Sur 0 -- -- 35
2020-10-19 09:00:00 14.8 17 Sur 26 Sur 0 -- -- 39
2020-10-19 08:00:00 14.8 17 Sur 26 Sudeste 0 -- -- 40
2020-10-19 07:00:00 15 18 Sur 32 Sur 0 -- -- 40
2020-10-19 06:00:00 15.4 20 Sur 30 Sur 0 -- -- 38
2020-10-19 05:00:00 15.6 18 Sur 31 Sur 0 -- -- 39
2020-10-19 04:00:00 15.3 17 Sur 28 Sur 0 -- -- 39
2020-10-19 03:00:00 15.5 18 Sur 29 Sudeste 0 -- -- 37
2020-10-19 02:00:00 15.3 16 Sur 29 Sur 0 -- -- 40
2020-10-19 01:00:00 15 11 Sur 17 Sur 0 -- -- 41
2020-10-19 00:00:00 14.2 6 Sudeste 10 Sudeste 0 -- -- 43
2020-10-18 23:00:00 15.2 7 Sur 12 Sur 0 -- -- 43
2020-10-18 22:00:00 13.8 0 Calma 6 Sur 0 -- -- 41
2020-10-18 21:00:00 17.7 5 Sur 11 Sur 0 -- -- 36
2020-10-18 20:00:00 20 8 Sur 19 Sur 0 -- -- 31
2020-10-18 19:00:00 23 13 Sur 21 Sur 0 -- -- 28
2020-10-18 18:00:00 24.4 11 Sur 27 Sudeste 0 -- -- 25
2020-10-18 17:00:00 24.8 15 Este 28 Este 0 -- -- 24
2020-10-18 16:00:00 24.6 9 Sudeste 22 Sudeste 0 -- -- 22
2020-10-18 15:00:00 23.8 8 Sudeste 20 Este 0 -- -- 25
2020-10-18 14:00:00 22.7 7 Nordeste 18 Este 0 -- -- 27
2020-10-18 13:00:00 21.6 5 Este 15 Nordeste 0 -- -- 30
2020-10-18 12:00:00 19.5 4 Nordeste 8 Norte 0 -- -- 33
2020-10-18 11:00:00 15.9 2 Noroeste 6 Norte 0 -- -- 41
2020-10-18 10:00:00 10.5 4 Este 6 Sudeste 0 -- -- 53
2020-10-18 09:00:00 4.2 0 Calma 5 Este 0 -- -- 57
2020-10-18 08:00:00 4.1 0 Calma 2 Sur 0 -- -- 62
2020-10-18 07:00:00 4.7 0 Calma 3 Sudoeste 0 -- -- 61
2020-10-18 06:00:00 5.1 0 Calma 4 Sudoeste 0 -- -- 66
2020-10-18 05:00:00 5 0 Calma 2 Oeste 0 -- -- 60
2020-10-18 04:00:00 5.2 0 Calma 3 Oeste 0 -- -- 59
2020-10-18 03:00:00 6.3 0 Calma 3 Sudeste 0 -- -- 49
2020-10-18 02:00:00 6.9 0 Calma 3 Sudoeste 0 -- -- 50
2020-10-18 01:00:00 8.1 0 Calma 5 Sur 0 -- -- 46
2020-10-18 00:00:00 9.7 0 Calma 3 Oeste 0 -- -- 39
2020-10-17 23:00:00 11.7 0 Calma 6 Este 0 -- -- 38
2020-10-17 22:00:00 13.9 4 Este 11 Sur 0 -- -- 35
2020-10-17 21:00:00 15.1 4 Este 12 Norte 0 -- -- 32
2020-10-17 20:00:00 17.9 0 Calma 4 Nordeste 0 -- -- 27
2020-10-17 19:00:00 21.3 3 Noroeste 12 Noroeste 0 -- -- 23
2020-10-17 18:00:00 22.1 4 Oeste 20 Noroeste 0 -- -- 22
2020-10-17 17:00:00 22.2 8 Noroeste 20 Oeste 0 -- -- 22
2020-10-17 16:00:00 22.2 10 Oeste 23 Noroeste 0 -- -- 23
2020-10-17 15:00:00 21.6 4 Norte 18 Oeste 0 -- -- 25
2020-10-17 14:00:00 21 6 Sudeste 14 Sur 0 -- -- 27
2020-10-17 13:00:00 19.6 5 Sudoeste 12 Sudoeste 0 -- -- 29
2020-10-17 12:00:00 17.2 4 Sur 11 Sur 0 -- -- 35
2020-10-17 11:00:00 14.6 5 Sur 9 Sur 0 -- -- 41
2020-10-17 10:00:00 9.2 0 Calma 3 Sudoeste 0 -- -- 54
2020-10-17 09:00:00 3.6 3 Sudoeste 5 Sudoeste 0 -- -- 61
2020-10-17 08:00:00 4 2 Sudeste 3 Sudeste 0 -- -- 65
2020-10-17 07:00:00 5.2 0 Calma 5 Sur 0 -- -- 59
2020-10-17 06:00:00 5.7 4 Sur 6 Sur 0 -- -- 60
2020-10-17 05:00:00 4.3 0 Calma 4 Oeste 0 -- -- 61
2020-10-17 04:00:00 4.9 0 Calma 4 Sudoeste 0 -- -- 54
2020-10-17 03:00:00 6.8 0 Calma 4 Sudeste 0 -- -- 52
2020-10-17 02:00:00 6 3 Sudoeste 3 Sudoeste 0 -- -- 53
2020-10-17 01:00:00 7 0 Calma 5 Sudeste 0 -- -- 49
2020-10-17 00:00:00 8.8 0 Calma 4 Sudoeste 0 -- -- 45
2020-10-16 23:00:00 9.6 0 Calma 5 Sur 0 -- -- 44
2020-10-16 22:00:00 12.9 0 Calma 8 Norte 0 -- -- 39
2020-10-16 21:00:00 14.8 6 Norte 14 Norte 0 -- -- 36
2020-10-16 20:00:00 16.2 8 Norte 14 Norte 0 -- -- 32
2020-10-16 19:00:00 19.3 8 Noroeste 21 Noroeste 0 -- -- 27
2020-10-16 18:00:00 20.3 4 Norte 18 Noroeste 0 -- -- 26
2020-10-16 17:00:00 20.7 9 Noroeste 18 Norte 0 -- -- 26
2020-10-16 16:00:00 20.8 3 Noroeste 15 Oeste 0 -- -- 26
2020-10-16 15:00:00 19.8 5 Norte 17 Nordeste 0 -- -- 27
2020-10-16 14:00:00 19.2 5 Nordeste 18 Nordeste 0 -- -- 30
2020-10-16 13:00:00 17.8 5 Este 14 Este 0 -- -- 34
2020-10-16 12:00:00 15.7 6 Nordeste 14 Este 0 -- -- 38
2020-10-16 11:00:00 13.7 7 Nordeste 13 Nordeste 0 -- -- 43
2020-10-16 10:00:00 8.8 0 Calma 5 Sudoeste 0 -- -- 55
2020-10-16 09:00:00 4 0 Calma 6 Este 0 -- -- 59
2020-10-16 08:00:00 3.7 3 Oeste 5 Sudoeste 0 -- -- 64
2020-10-16 07:00:00 4.9 0 Calma 4 Nordeste 0 -- -- 58
2020-10-16 06:00:00 5.1 0 Calma 5 Nordeste 0 -- -- 57
2020-10-16 05:00:00 7.3 4 Nordeste 9 Nordeste 0 -- -- 55
2020-10-16 04:00:00 4.3 0 Calma 2 Este 0 -- -- 51
2020-10-16 03:00:00 5.2 0 Calma 2 Oeste 0 -- -- 51
2020-10-16 02:00:00 5.4 0 Calma 4 Oeste 0 -- -- 52
2020-10-16 01:00:00 6.5 0 Calma 2 Nordeste 0 -- -- 48
2020-10-16 00:00:00 7.7 0 Calma 0 Calma 0 -- -- 45
2020-10-15 23:00:00 9.1 0 Calma 4 Sudoeste 0 -- -- 44
2020-10-15 22:00:00 10.9 3 Noroeste 10 Noroeste 0 -- -- 41
2020-10-15 21:00:00 12.6 9 Norte 12 Norte 0 -- -- 39
2020-10-15 20:00:00 15.5 10 Norte 21 Norte 0 -- -- 35
2020-10-15 19:00:00 18.7 10 Noroeste 18 Noroeste 0 -- -- 30
2020-10-15 18:00:00 19.9 10 Noroeste 19 Noroeste 0 -- -- 28
2020-10-15 17:00:00 20.4 11 Noroeste 22 Noroeste 0 -- -- 26
2020-10-15 16:00:00 19.9 5 Norte 21 Noroeste 0 -- -- 28
2020-10-15 15:00:00 19.5 6 Norte 16 Noroeste 0 -- -- 30
2020-10-15 14:00:00 18.6 4 Noroeste 15 Noroeste 0 -- -- 34
2020-10-15 13:00:00 17.3 4 Noroeste 13 Noroeste 0 -- -- 39
2020-10-15 12:00:00 15.5 3 Oeste 13 Noroeste 0 -- -- 43
2020-10-15 11:00:00 12.8 4 Noroeste 8 Noroeste 0 -- -- 51
2020-10-15 10:00:00 9.7 0 Calma 4 Sudeste 0 -- -- 57
2020-10-15 09:00:00 5.4 0 Calma 6 Sur 0 -- -- 69
2020-10-15 08:00:00 5.1 2 Sur 5 Sudoeste 0 -- -- 67
2020-10-15 07:00:00 5.4 3 Sur 6 Sur 0 -- -- 67
2020-10-15 06:00:00 6.2 0 Calma 6 Sur 0 -- -- 66
2020-10-15 05:00:00 7.2 3 Sur 5 Oeste 0 -- -- 63
2020-10-15 04:00:00 7.8 4 Oeste 10 Noroeste 0 -- -- 60
2020-10-15 03:00:00 8.9 5 Nordeste 13 Noroeste 0 -- -- 59
2020-10-15 02:00:00 8.9 11 Noroeste 13 Noroeste 0 -- -- 57
2020-10-15 01:00:00 9.4 9 Noroeste 15 Noroeste 0 -- -- 54
2020-10-15 00:00:00 10.1 10 Noroeste 14 Noroeste 0 -- -- 50
2020-10-14 23:00:00 10 9 Noroeste 10 Oeste 0 -- -- 48
2020-10-14 22:00:00 10.3 8 Noroeste 9 Oeste 0 -- -- 45
2020-10-14 21:00:00 12.4 7 Oeste 11 Noroeste 0 -- -- 41
2020-10-14 20:00:00 15.1 9 Norte 22 Noroeste 0 -- -- 44
2020-10-14 19:00:00 17.7 15 Norte 27 Norte 0 -- -- 39
2020-10-14 18:00:00 18.6 17 Norte 32 Norte 0 -- -- 39
2020-10-14 17:00:00 19.2 17 Norte 34 Norte 0 -- -- 40
2020-10-14 16:00:00 18.9 18 Norte 33 Norte 0 -- -- 40
2020-10-14 15:00:00 17.8 17 Noroeste 28 Norte 0 -- -- 42
2020-10-14 14:00:00 16.5 15 Noroeste 27 Noroeste 0 -- -- 46
2020-10-14 13:00:00 15.1 14 Noroeste 28 Noroeste 0 -- -- 51
2020-10-14 12:00:00 13.7 13 Noroeste 21 Noroeste 0 -- -- 56
2020-10-14 11:00:00 12 9 Oeste 20 Oeste 0 -- -- 67
2020-10-14 10:00:00 10 9 Oeste 14 Oeste 0 -- -- 78
2020-10-14 09:00:00 7.1 2 Sudoeste 10 Oeste 0 -- -- 89
2020-10-14 08:00:00 7.6 10 Oeste 22 Oeste 0 -- -- 88
2020-10-14 07:00:00 8.2 15 Noroeste 19 Oeste 0 -- -- 90
2020-10-14 06:00:00 9.1 11 Oeste 14 Oeste 0 -- -- 88
2020-10-14 05:00:00 10.4 12 Noroeste 21 Noroeste 0 -- -- 86
2020-10-14 04:00:00 11.4 17 Noroeste 29 Noroeste 0 -- -- 84
2020-10-14 03:00:00 12.9 24 Oeste 33 Oeste 0 -- -- 80
2020-10-14 02:00:00 14.4 18 Oeste 25 Oeste 0 -- -- 77
2020-10-14 01:00:00 15.3 17 Oeste 25 Oeste 0 -- -- 70
2020-10-14 00:00:00 16.2 14 Oeste 18 Oeste 0 -- -- 57
2020-10-13 23:00:00 16.5 14 Oeste 20 Oeste 0 -- -- 49
2020-10-13 22:00:00 16.7 0 Calma 11 Oeste 0 -- -- 44
2020-10-13 21:00:00 18.1 9 Oeste 12 Oeste 0 -- -- 41
2020-10-13 20:00:00 20.9 10 Oeste 24 Oeste 0 -- -- 36
2020-10-13 19:00:00 23.7 18 Oeste 28 Oeste 0 -- -- 31
2020-10-13 18:00:00 25 17 Oeste 30 Oeste 0 -- -- 29
2020-10-13 17:00:00 25.7 11 Noroeste 26 Oeste 0 -- -- 26
2020-10-13 16:00:00 25.2 10 Noroeste 21 Noroeste 0 -- -- 23
2020-10-13 15:00:00 24.3 10 Noroeste 18 Noroeste 0 -- -- 21
2020-10-13 14:00:00 23.7 3 Sur 14 Nordeste 0 -- -- 22
2020-10-13 13:00:00 22 4 Noroeste 10 Oeste 0 -- -- 25
2020-10-13 12:00:00 19.8 5 Oeste 10 Sudoeste 0 -- -- 27
2020-10-13 11:00:00 16.3 2 Oeste 5 Oeste 0 -- -- 35
2020-10-13 10:00:00 10.1 0 Calma 2 Oeste 0 -- -- 51
2020-10-13 09:00:00 4.2 0 Calma 2 Este 0 -- -- 58
2020-10-13 08:00:00 3.7 0 Calma 2 Sudoeste 0 -- -- 60
2020-10-13 07:00:00 4.3 0 Calma 2 Sur 0 -- -- 57
2020-10-13 06:00:00 4.8 2 Sur 3 Oeste 0 -- -- 57
2020-10-13 05:00:00 4.9 2 Sur 4 Sudoeste 0 -- -- 55
2020-10-13 04:00:00 -- -- -- -- -- -- -- -- --
2020-10-13 03:00:00 6.6 3 Norte 4 Norte 0 -- -- 51
2020-10-13 02:00:00 6.7 4 Oeste 6 Nordeste 0 -- -- 50
2020-10-13 01:00:00 -- -- -- -- -- -- -- -- --
2020-10-13 00:00:00 10.7 0 Calma 6 Norte 0 -- -- 42
2020-10-12 23:00:00 11.6 0 Calma 11 Noroeste 0 -- -- 39
2020-10-12 22:00:00 13.1 11 Noroeste 16 Norte 0 -- -- 37
2020-10-12 21:00:00 14.6 13 Norte 15 Norte 0 -- -- 33
2020-10-12 20:00:00 16.8 12 Norte 18 Norte 0 -- -- 29
2020-10-12 19:00:00 20.1 14 Norte 21 Norte 0 -- -- 25
2020-10-12 18:00:00 20.8 12 Norte 22 Norte 0 -- -- 25
2020-10-12 17:00:00 20.7 12 Norte 24 Norte 0 -- -- 24
2020-10-12 16:00:00 20.6 12 Norte 22 Norte 0 -- -- 25
2020-10-12 15:00:00 20 10 Nordeste 29 Nordeste 0 -- -- 27
2020-10-12 14:00:00 19 15 Nordeste 29 Este 0 -- -- 29
2020-10-12 13:00:00 18.4 18 Nordeste 33 Este 0 -- -- 31
2020-10-12 12:00:00 16.8 14 Nordeste 30 Nordeste 0 -- -- 36
2020-10-12 11:00:00 14.5 17 Nordeste 28 Este 0 -- -- 42
2020-10-12 10:00:00 12.3 9 Nordeste 21 Nordeste 0 -- -- 48
2020-10-12 09:00:00 9.2 7 Este 20 Nordeste 0 -- -- 56
2020-10-12 08:00:00 9.4 7 Nordeste 27 Nordeste 0 -- -- 54
2020-10-12 07:00:00 10.2 14 Nordeste 30 Nordeste 0 -- -- 51
2020-10-12 06:00:00 9.9 5 Nordeste 17 Este 0 -- -- 51
2020-10-12 05:00:00 10.8 6 Nordeste 21 Nordeste 0 -- -- 48
2020-10-12 04:00:00 -- -- -- -- -- -- -- -- --
2020-10-12 03:00:00 12.8 13 Nordeste 31 Este 0 -- -- 40
2020-10-12 02:00:00 12.3 5 Nordeste 18 Este 0 -- -- 38
2020-10-12 01:00:00 13.1 3 Nordeste 15 Este 0 -- -- 34
2020-10-12 00:00:00 14.2 8 Nordeste 21 Este 0 -- -- 32
2020-10-11 23:00:00 14.4 3 Sudeste 15 Nordeste 0 -- -- 32
2020-10-11 22:00:00 17.1 9 Nordeste 14 Nordeste 0 -- -- 27
2020-10-11 21:00:00 -- -- -- -- -- -- -- -- --
2020-10-11 20:00:00 -- -- -- -- -- -- -- -- --
2020-10-11 19:00:00 23.2 8 Nordeste 26 Norte 0 -- -- 23
2020-10-11 18:00:00 23.9 10 Nordeste 22 Norte 0 -- -- 26
2020-10-11 17:00:00 24.3 7 Nordeste 24 Norte 0 -- -- 27
2020-10-11 16:00:00 23.8 15 Nordeste 28 Nordeste 0 -- -- 29
2020-10-11 15:00:00 23.2 13 Nordeste 27 Nordeste 0 -- -- 30
2020-10-11 14:00:00 22.8 13 Nordeste 28 Nordeste 0 -- -- 30
2020-10-11 13:00:00 21.7 13 Nordeste 32 Nordeste 0 -- -- 30
2020-10-11 12:00:00 20.4 16 Nordeste 28 Este 0 -- -- 33
2020-10-11 11:00:00 19 12 Nordeste 26 Nordeste 0 -- -- 39
2020-10-11 10:00:00 16.3 12 Nordeste 26 Este 0 -- -- 50
2020-10-11 09:00:00 13.2 6 Nordeste 13 Nordeste 0 -- -- 64
2020-10-11 08:00:00 13.6 4 Nordeste 14 Nordeste 0 -- -- 64
2020-10-11 07:00:00 14 5 Nordeste 14 Nordeste 0 -- -- 64
2020-10-11 06:00:00 14.5 7 Nordeste 16 Nordeste 0 -- -- 59
2020-10-11 05:00:00 14.7 6 Nordeste 13 Nordeste 0 -- -- 56
2020-10-11 04:00:00 15.2 5 Nordeste 15 Nordeste 0 -- -- 52
2020-10-11 03:00:00 15.9 4 Nordeste 13 Noroeste 0 -- -- 51
2020-10-11 02:00:00 14.9 12 Noroeste 14 Noroeste 0 -- -- 52
2020-10-11 01:00:00 14.8 4 Noroeste 5 Sudoeste 0 -- -- 51
2020-10-11 00:00:00 16.1 3 Oeste 5 Oeste 0 -- -- 45
2020-10-10 23:00:00 17.3 4 Sudeste 10 Noroeste 0 -- -- 44
2020-10-10 22:00:00 19.5 5 Noroeste 7 Norte 0 -- -- 40
2020-10-10 21:00:00 21.8 6 Norte 12 Norte 0 -- -- 35
2020-10-10 20:00:00 24.2 9 Norte 24 Norte 0 -- -- 32
2020-10-10 19:00:00 27.7 16 Noroeste 22 Noroeste 0 -- -- 28
2020-10-10 18:00:00 29 13 Noroeste 28 Norte 0 -- -- 26
2020-10-10 17:00:00 29.8 15 Norte 30 Oeste 0 -- -- 25
2020-10-10 16:00:00 30.2 15 Oeste 23 Oeste 0 -- -- 24
2020-10-10 15:00:00 29.6 7 Sur 14 Sudoeste 0 -- -- 25
2020-10-10 14:00:00 28.5 6 Oeste 13 Sudoeste 0 -- -- 27
2020-10-10 13:00:00 27.3 5 Sudeste 9 Sur 0 -- -- 29
2020-10-10 12:00:00 25.5 3 Sudoeste 7 Sudoeste 0 -- -- 32
2020-10-10 11:00:00 21.8 4 Sur 9 Sur 0 -- -- 41
2020-10-10 10:00:00 17 3 Sur 6 Sur 0 -- -- 54
2020-10-10 09:00:00 10.9 3 Noroeste 5 Norte 0 -- -- 67
2020-10-10 08:00:00 11 0 Calma 4 Noroeste 0 -- -- 66
2020-10-10 07:00:00 11.6 3 Sudoeste 5 Oeste 0 -- -- 67
2020-10-10 06:00:00 11.9 2 Oeste 5 Oeste 0 -- -- 60
2020-10-10 05:00:00 13 0 Calma 4 Sur 0 -- -- 62
2020-10-10 04:00:00 12.5 3 Sur 5 Sudoeste 0 -- -- 63
2020-10-10 03:00:00 13.6 0 Calma 5 Sudeste 0 -- -- 53
2020-10-10 02:00:00 14.1 2 Sudoeste 5 Oeste 0 -- -- 59
2020-10-10 01:00:00 14.9 0 Calma 2 Oeste 0 -- -- 53
2020-10-10 00:00:00 16.4 0 Calma 4 Sudoeste 0 -- -- 50
2020-10-09 23:00:00 18.6 2 Noroeste 5 Sudeste 0 -- -- 44
2020-10-09 22:00:00 20.7 4 Oeste 12 Norte 0 -- -- 42
2020-10-09 21:00:00 21.7 9 Noroeste 13 Noroeste 0 -- -- 37
2020-10-09 20:00:00 24.8 9 Norte 17 Norte 0 -- -- 31
2020-10-09 19:00:00 27.8 15 Norte 22 Norte 0 -- -- 27
2020-10-09 18:00:00 29.4 7 Norte 22 Noroeste 0 -- -- 26
2020-10-09 17:00:00 30 14 Noroeste 22 Noroeste 0 -- -- 25
2020-10-09 16:00:00 29.7 9 Noroeste 19 Noroeste 0 -- -- 26
2020-10-09 15:00:00 29.8 3 Sudeste 15 Oeste 0 -- -- 27
2020-10-09 14:00:00 28.2 4 Sudoeste 15 Sur 0 -- -- 28
2020-10-09 13:00:00 26.3 7 Sur 15 Sur 0 -- -- 33
2020-10-09 12:00:00 23.4 5 Sur 12 Sudoeste 0 -- -- 40
2020-10-09 11:00:00 19.6 5 Sur 12 Sur 0 -- -- 49
2020-10-09 10:00:00 16.5 2 Sudoeste 5 Sudoeste 0 -- -- 57
2020-10-09 09:00:00 12.5 3 Sudoeste 6 Sudoeste 0 -- -- 65
2020-10-09 08:00:00 12.5 0 Calma 4 Sudoeste 0 -- -- 63
2020-10-09 07:00:00 13 2 Sudoeste 4 Sudoeste 0 -- -- 59
2020-10-09 06:00:00 13.4 0 Calma 6 Sur 0 -- -- 58
2020-10-09 05:00:00 14.7 3 Sur 8 Sudoeste 0 -- -- 55
2020-10-09 04:00:00 14.6 5 Sudoeste 8 Sudoeste 0 -- -- 55
2020-10-09 03:00:00 15.6 0 Calma 9 Sur 0 -- -- 52
2020-10-09 02:00:00 16.9 5 Oeste 10 Sudoeste 0 -- -- 47
2020-10-09 01:00:00 18.3 5 Sur 10 Sur 0 -- -- 45
2020-10-09 00:00:00 18 3 Sur 8 Sur 0 -- -- 44
2020-10-08 23:00:00 19.8 4 Sur 11 Sur 0 -- -- 39
2020-10-08 22:00:00 20.3 4 Sudoeste 13 Sur 0 -- -- 38
2020-10-08 21:00:00 23.7 9 Sur 12 Sur 0 -- -- 33
2020-10-08 20:00:00 25.3 7 Sur 12 Sur 0 -- -- 29
2020-10-08 19:00:00 28.6 7 Sudeste 16 Sudeste 0 -- -- 25
2020-10-08 18:00:00 28.9 9 Sur 14 Sur 0 -- -- 24
2020-10-08 17:00:00 30.2 6 Sur 19 Sudoeste 0 -- -- 21
2020-10-08 16:00:00 29.8 9 Sur 27 Sudoeste 0 -- -- 22
2020-10-08 15:00:00 29.2 13 Sur 32 Sur 0 -- -- 23
2020-10-08 14:00:00 28.5 16 Sur 33 Sur 0 -- -- 24
2020-10-08 13:00:00 27.1 10 Sur 24 Sur 0 -- -- 29
2020-10-08 12:00:00 25.6 5 Sur 10 Este 0 -- -- 33
2020-10-08 11:00:00 21.7 6 Este 9 Este 0 -- -- 40
2020-10-08 10:00:00 15.5 0 Calma 4 Oeste 0 -- -- 58
2020-10-08 09:00:00 9.2 3 Oeste 4 Oeste 0 -- -- 72
2020-10-08 08:00:00 9.7 0 Calma 4 Oeste 0 -- -- 72
2020-10-08 07:00:00 10.4 0 Calma 4 Oeste 0 -- -- 68
2020-10-08 06:00:00 11.4 2 Sur 5 Sur 0 -- -- 68
2020-10-08 05:00:00 11 0 Calma 3 Este 0 -- -- 64
2020-10-08 04:00:00 12.3 2 Sudeste 6 Noroeste 0 -- -- 61
2020-10-08 03:00:00 12.9 4 Noroeste 5 Noroeste 0 -- -- 62
2020-10-08 02:00:00 14.1 0 Calma 3 Oeste 0 -- -- 54
2020-10-08 01:00:00 14.8 0 Calma 5 Sudoeste 0 -- -- 52
2020-10-08 00:00:00 16.9 0 Calma 2 Oeste 0 -- -- 50
2020-10-07 23:00:00 17.6 0 Calma 8 Noroeste 0 -- -- 46
2020-10-07 22:00:00 19.5 3 Noroeste 13 Noroeste 0 -- -- 43
2020-10-07 21:00:00 20.8 10 Noroeste 13 Noroeste 0 -- -- 37
2020-10-07 20:00:00 25 5 Norte 13 Norte 0 -- -- 26
2020-10-07 19:00:00 27.7 8 Nordeste 15 Norte 0 -- -- 23
2020-10-07 18:00:00 28.8 6 Norte 13 Norte 0 -- -- 24
2020-10-07 17:00:00 29.1 4 Sur 18 Este 0 -- -- 26
2020-10-07 16:00:00 28.4 6 Norte 18 Norte 0 -- -- 28
2020-10-07 15:00:00 27.9 6 Nordeste 16 Este 0 -- -- 27
2020-10-07 14:00:00 26.4 4 Sudeste 13 Nordeste 0 -- -- 36
2020-10-07 13:00:00 25 6 Nordeste 14 Este 0 -- -- 44
2020-10-07 12:00:00 22.8 6 Nordeste 12 Este 0 -- -- 50
2020-10-07 11:00:00 20.5 3 Nordeste 8 Nordeste 0 -- -- 59
2020-10-07 10:00:00 15.3 0 Calma 4 Este 0 -- -- 78
2020-10-07 09:00:00 9.4 0 Calma 2 Sudoeste 0 -- -- 85
2020-10-07 08:00:00 9.7 0 Calma 4 Nordeste 0 -- -- 88
2020-10-07 07:00:00 10.8 0 Calma 10 Sur 0 -- -- 89
2020-10-07 06:00:00 10.1 3 Sur 4 Sur 0 -- -- 85
2020-10-07 05:00:00 10.6 2 Oeste 4 Oeste 0 -- -- 78
2020-10-07 04:00:00 11.4 2 Oeste 4 Oeste 0 -- -- 77
2020-10-07 03:00:00 12.6 0 Calma 3 Oeste 0 -- -- 77
2020-10-07 02:00:00 12.8 2 Sudoeste 4 Sudoeste 0 -- -- 82
2020-10-07 01:00:00 13.4 0 Calma 3 Sudoeste 0 -- -- 76
2020-10-07 00:00:00 14.4 0 Calma 4 Sur 0 -- -- 70
2020-10-06 23:00:00 16.3 0 Calma 3 Sur 0 -- -- 68
2020-10-06 22:00:00 17.7 2 Sur 6 Noroeste 0 -- -- 63
2020-10-06 21:00:00 20 6 Norte 9 Norte 0 -- -- 56
2020-10-06 20:00:00 22.1 10 Norte 21 Norte 0 -- -- 51
2020-10-06 19:00:00 24.7 15 Norte 23 Norte 0 -- -- 45
2020-10-06 18:00:00 25.9 11 Noroeste 21 Norte 0 -- -- 43
2020-10-06 17:00:00 25.8 12 Norte 23 Norte 0 -- -- 42
2020-10-06 16:00:00 24.8 8 Noroeste 29 Noroeste 0 -- -- 46
2020-10-06 15:00:00 23.6 10 Noroeste 21 Noroeste 0 -- -- 48
2020-10-06 14:00:00 22.6 10 Norte 21 Norte 0 -- -- 52
2020-10-06 13:00:00 21.3 12 Norte 22 Norte 0 -- -- 56
2020-10-06 12:00:00 19.4 10 Noroeste 17 Noroeste 0 -- -- 62
2020-10-06 11:00:00 17.5 4 Sudoeste 9 Sudoeste 0 -- -- 65
2020-10-06 10:00:00 13.9 0 Calma 3 Sudoeste 0 -- -- 77
2020-10-06 09:00:00 8.4 2 Sudoeste 3 Sur 0 -- -- 85
2020-10-06 08:00:00 8.4 2 Sudoeste 5 Sudeste 0 -- -- 80
2020-10-06 07:00:00 8.7 0 Calma 5 Sudoeste 0 -- -- 85
2020-10-06 06:00:00 8.6 0 Calma 4 Sudeste 0 -- -- 81
2020-10-06 05:00:00 8.8 0 Calma 5 Sur 0 -- -- 75
2020-10-06 04:00:00 9 0 Calma 4 Sudoeste 0 -- -- 73
2020-10-06 03:00:00 10 0 Calma 5 Sur 0 -- -- 69
2020-10-06 02:00:00 11.1 3 Norte 9 Sur 0 -- -- 66
2020-10-06 01:00:00 10.7 3 Oeste 7 Noroeste 0 -- -- 65
2020-10-06 00:00:00 12.7 2 Sudoeste 10 Sur 0 -- -- 60
2020-10-05 23:00:00 12.9 5 Sur 12 Norte 0 -- -- 60
2020-10-05 22:00:00 14.4 3 Nordeste 14 Norte 0 -- -- 53
2020-10-05 21:00:00 15 11 Noroeste 18 Noroeste 0 -- -- 50
2020-10-05 20:00:00 17.7 12 Norte 29 Noroeste 0 -- -- 41
2020-10-05 19:00:00 20 18 Noroeste 28 Noroeste 0 -- -- 37
2020-10-05 18:00:00 20.6 17 Noroeste 31 Noroeste 0 -- -- 37
2020-10-05 17:00:00 20.6 17 Noroeste 35 Noroeste 0 -- -- 37
2020-10-05 16:00:00 19.7 18 Noroeste 31 Noroeste 0 -- -- 40
2020-10-05 15:00:00 19 15 Noroeste 28 Noroeste 0 -- -- 43
2020-10-05 14:00:00 18.1 18 Noroeste 32 Norte 0 -- -- 44
2020-10-05 13:00:00 17.1 20 Norte 40 Noroeste 0 -- -- 46
2020-10-05 12:00:00 16 24 Noroeste 36 Noroeste 0 -- -- 50
2020-10-05 11:00:00 14 19 Noroeste 28 Noroeste 0 -- -- 62
2020-10-05 10:00:00 11.2 8 Noroeste 14 Noroeste 0 -- -- 76
2020-10-05 09:00:00 7.4 9 Noroeste 13 Noroeste 0 -- -- 91
2020-10-05 08:00:00 7.2 8 Noroeste 15 Noroeste 0 -- -- 85
2020-10-05 07:00:00 7.4 9 Noroeste 14 Noroeste 0 -- -- 88
2020-10-05 06:00:00 7.8 9 Oeste 11 Oeste 0 -- -- 83
2020-10-05 05:00:00 8.1 0 Calma 12 Oeste 0 -- -- 81
2020-10-05 04:00:00 8.6 8 Noroeste 14 Noroeste 0 -- -- 78
2020-10-05 03:00:00 9.8 7 Oeste 15 Oeste 0 -- -- 73
2020-10-05 02:00:00 11.2 13 Noroeste 23 Noroeste 0 -- -- 68
2020-10-05 01:00:00 11.6 10 Noroeste 18 Noroeste 0 -- -- 68
2020-10-05 00:00:00 13 14 Noroeste 23 Oeste 0 -- -- 63
2020-10-04 23:00:00 13.8 17 Oeste 22 Noroeste 0 -- -- 61
2020-10-04 22:00:00 13.4 10 Oeste 14 Oeste 0 -- -- 62
2020-10-04 21:00:00 14.2 10 Oeste 20 Oeste 0 -- -- 61
2020-10-04 20:00:00 16 13 Oeste 35 Noroeste 0 -- -- 56
2020-10-04 19:00:00 17.9 19 Oeste 31 Noroeste 0 -- -- 55
2020-10-04 18:00:00 16.5 19 Oeste 38 Noroeste 0 -- -- 70
2020-10-04 17:00:00 18.2 28 Noroeste 47 Oeste 0 -- -- 66
2020-10-04 16:00:00 18.5 26 Oeste 42 Oeste 0 -- -- 60
2020-10-04 15:00:00 18.6 30 Oeste 43 Sudoeste 0 -- -- 56
2020-10-04 14:00:00 18.3 21 Sudoeste 32 Sudoeste 0 -- -- 52
2020-10-04 13:00:00 16.4 14 Oeste 27 Oeste 0 -- -- 57
2020-10-04 12:00:00 15.2 18 Oeste 27 Sudoeste 0 -- -- 61
2020-10-04 11:00:00 12.9 12 Sudoeste 18 Sudoeste 0 -- -- 71
2020-10-04 10:00:00 10.1 5 Sur 9 Sur 0 -- -- 80
2020-10-04 09:00:00 7 4 Sur 9 Sur 0 -- -- 90
2020-10-04 08:00:00 6 6 Sur 10 Sur 0 -- -- 88
2020-10-04 07:00:00 6.2 4 Sudoeste 6 Sudoeste 0 -- -- 88
2020-10-04 06:00:00 7 4 Oeste 10 Sur 0 -- -- 83
2020-10-04 05:00:00 6.8 4 Sudoeste 9 Sur 0 -- -- 84
2020-10-04 04:00:00 6.5 3 Sudoeste 8 Noroeste 0 -- -- 81
2020-10-04 03:00:00 7.6 3 Sur 5 Sudeste 0 -- -- 78
2020-10-04 02:00:00 8.4 0 Calma 6 Noroeste 0 -- -- 74
2020-10-04 01:00:00 9.7 3 Oeste 8 Oeste 0 -- -- 70
2020-10-04 00:00:00 10.4 5 Sudoeste 12 Oeste 0 -- -- 68
2020-10-03 23:00:00 11.2 6 Oeste 13 Oeste 0 -- -- 63
2020-10-03 22:00:00 12.7 10 Oeste 23 Noroeste 0 -- -- 57
2020-10-03 21:00:00 13.9 14 Oeste 30 Oeste 0 -- -- 52
2020-10-03 20:00:00 15.3 20 Oeste 33 Oeste 0 -- -- 46
2020-10-03 19:00:00 17.1 21 Oeste 35 Oeste 0 -- -- 40
2020-10-03 18:00:00 17.9 24 Oeste 36 Oeste 0 -- -- 37
2020-10-03 17:00:00 18.3 23 Noroeste 37 Noroeste 0 -- -- 36
2020-10-03 16:00:00 18 24 Noroeste 40 Noroeste 0 -- -- 36
2020-10-03 15:00:00 17.4 17 Oeste 33 Noroeste 0 -- -- 38
2020-10-03 14:00:00 15.9 16 Noroeste 36 Noroeste 0 -- -- 44
2020-10-03 13:00:00 14.3 15 Noroeste 36 Noroeste 0 -- -- 55
2020-10-03 12:00:00 13.1 19 Noroeste 30 Oeste 0 -- -- 60
2020-10-03 11:00:00 11.3 16 Oeste 28 Oeste 0 -- -- 71
2020-10-03 10:00:00 9.4 12 Oeste 19 Oeste 0 -- -- 84
2020-10-03 09:00:00 6.6 8 Sudoeste 14 Oeste 0 -- -- 93
2020-10-03 08:00:00 6.3 8 Oeste 14 Oeste 0 -- -- 91
2020-10-03 07:00:00 6.8 13 Oeste 19 Oeste 0 -- -- 91
2020-10-03 06:00:00 6.6 7 Oeste 18 Oeste 0 -- -- 89
2020-10-03 05:00:00 7.1 10 Noroeste 24 Oeste 0 -- -- 87
2020-10-03 04:00:00 7.5 18 Oeste 26 Oeste 0 -- -- 85
2020-10-03 03:00:00 7.9 14 Oeste 28 Oeste 0 -- -- 83
2020-10-03 02:00:00 8.1 15 Oeste 25 Oeste 0 -- -- 81
2020-10-03 01:00:00 8.4 9 Oeste 27 Oeste 0 -- -- 79
2020-10-03 00:00:00 9.4 16 Oeste 33 Oeste 0 -- -- 76
2020-10-02 23:00:00 10.3 27 Oeste 40 Oeste 0 -- -- 71
2020-10-02 22:00:00 10.9 23 Oeste 32 Oeste 0 -- -- 69
2020-10-02 21:00:00 11.1 9 Oeste 40 Noroeste 0 -- -- 68
2020-10-02 20:00:00 13.1 29 Noroeste 53 Noroeste 0 -- -- 54
2020-10-02 19:00:00 14.3 31 Oeste 49 Noroeste 0 -- -- 62
2020-10-02 18:00:00 13.4 35 Noroeste 62 Oeste 0 -- -- 70
2020-10-02 17:00:00 15.3 42 Oeste 66 Oeste 0 -- -- 72
2020-10-02 16:00:00 15.3 48 Oeste 70 Oeste 0 -- -- 84
2020-10-02 15:00:00 15.2 41 Oeste 66 Oeste 1 -- -- 87
2020-10-02 14:00:00 16.7 44 Oeste 68 Oeste 1.6 -- -- 88
2020-10-02 13:00:00 17 42 Oeste 64 Sudoeste 0.2 -- -- 86
2020-10-02 12:00:00 17 38 Sudoeste 69 Oeste 0 -- -- 85
2020-10-02 11:00:00 16.3 40 Oeste 55 Sudoeste 0 -- -- 86
2020-10-02 10:00:00 15.8 31 Sudoeste 45 Sudoeste 0 -- -- 81
2020-10-02 09:00:00 14.7 28 Sudoeste 42 Sudoeste 0 -- -- 84
2020-10-02 08:00:00 14.3 29 Sudoeste 42 Oeste 0 -- -- 81
2020-10-02 07:00:00 13.6 24 Oeste 42 Sudoeste 0 -- -- 80
2020-10-02 06:00:00 13.5 21 Oeste 33 Oeste 0 -- -- 78
2020-10-02 05:00:00 13.4 24 Oeste 39 Oeste 0 -- -- 79
2020-10-02 04:00:00 13.5 27 Oeste 39 Oeste 0 -- -- 74
2020-10-02 03:00:00 14 26 Oeste 34 Oeste 0 -- -- 72
2020-10-02 02:00:00 14.6 17 Oeste 29 Oeste 0 -- -- 70
2020-10-02 01:00:00 15.1 16 Oeste 28 Oeste 0 -- -- 67
2020-10-02 00:00:00 15.5 13 Oeste 26 Noroeste 0 -- -- 67
2020-10-01 23:00:00 16.4 12 Oeste 31 Oeste 0 -- -- 65
2020-10-01 22:00:00 17.7 15 Oeste 23 Oeste 0 -- -- 60
2020-10-01 21:00:00 18.9 17 Oeste 32 Oeste 0 -- -- 56
2020-10-01 20:00:00 20.3 19 Oeste 34 Oeste 0 -- -- 52
2020-10-01 19:00:00 21.8 24 Oeste 40 Oeste 0 -- -- 48
2020-10-01 18:00:00 22.9 26 Oeste 41 Oeste 0 -- -- 45
2020-10-01 17:00:00 23.9 29 Oeste 42 Noroeste 0 -- -- 45
2020-10-01 16:00:00 24.6 19 Oeste 36 Noroeste 0 -- -- 43
2020-10-01 15:00:00 23.2 17 Oeste 31 Oeste 0 -- -- 44
2020-10-01 14:00:00 22.2 9 Oeste 25 Noroeste 0 -- -- 42
2020-10-01 13:00:00 20.4 14 Noroeste 21 Noroeste 0 -- -- 46
2020-10-01 12:00:00 17.8 12 Oeste 23 Oeste 0 -- -- 54
2020-10-01 11:00:00 15.7 7 Oeste 15 Noroeste 0 -- -- 61
2020-10-01 10:00:00 13.5 12 Noroeste 18 Sudoeste 0 -- -- 76
2020-10-01 09:00:00 11.4 8 Oeste 15 Sudoeste 0 -- -- 90
2020-10-01 08:00:00 11.4 5 Noroeste 16 Oeste 0 -- -- 85
2020-10-01 07:00:00 12.4 4 Sudoeste 16 Sudoeste 0 -- -- 82
2020-10-01 06:00:00 11.6 2 Oeste 10 Sudoeste 0 -- -- 79
2020-10-01 05:00:00 12.5 0 Calma 6 Este 0 -- -- 74
2020-10-01 04:00:00 14.2 4 Este 15 Sudoeste 0 -- -- 69
2020-10-01 03:00:00 15 4 Sudoeste 16 Oeste 0 -- -- 64
2020-10-01 02:00:00 16.3 11 Oeste 16 Oeste 0 -- -- 58
2020-10-01 01:00:00 16.4 7 Oeste 10 Sudoeste 0 -- -- 47
2020-10-01 00:00:00 17.2 6 Oeste 10 Oeste 0 -- -- 42